Terminal Aerodrome Forecast
Issued by NWS

Home | Current Version | Previous Version | Text Only | Print | Product List | Glossary On
Versions: 1 2 3 4 5 6 7 8 9 10 11 12 13 14 15 16 17 18 19 20 21 22 23 24 25 26 27 28 29 30 31 32
000
FTUS43 KDLH 250500
TAFBRD
TAF
KBRD 250521Z 2506/2606 06009G16KT P6SM BKN014 OVC023
     FM251200 06008G13KT P6SM SCT021 BKN160
     FM252200 18003KT P6SM SCT025 OVC250
     FM260400 19009G19KT 5SM -SN BKN018=

USA.gov is the U.S. government's official web portal to all federal, state and local government web resources and services.